Time;durP1;ratioP1;P1;durP2;ratioP2;P2;SDS_P1;SDS_P2;PMS_P1;PMS_P2;Temp;Humidity;BMP_temperature;BMP_pressure;BME280_temperature;BME280_humidity;BME280_pressure;Samples;Min_cycle;Max_cycle;Signal;HPM_P1;HPM_P2
2022/12/21 00:00:28;;;;;;;;;;;28.30;74.70;;;;;;5042838;28;19913;-71
2022/12/21 00:02:55;;;;;;;;;;;28.50;72.70;;;;;;5034583;28;20055;-70
2022/12/21 00:05:22;;;;;;;;;;;28.40;72.00;;;;;;5023839;28;19917;-70
2022/12/21 00:07:51;;;;;;;;;;;28.50;73.90;;;;;;5028253;28;19917;-72
2022/12/21 00:10:18;;;;;;;;;;;28.50;72.00;;;;;;5024108;28;19932;-71
2022/12/21 00:12:45;;;;;;;;;;;28.20;72.50;;;;;;5023731;28;19990;-69
2022/12/21 00:15:11;;;;;;;;;;;28.00;72.90;;;;;;5008826;28;20739;-69
2022/12/21 00:17:38;;;;;;;;;;;28.00;74.30;;;;;;5032767;28;20079;-71
2022/12/21 00:20:06;;;;;;;;;;;27.90;71.20;;;;;;5013790;28;19948;-71
2022/12/21 00:22:33;;;;;;;;;;;27.80;70.10;;;;;;5032787;28;19920;-70
2022/12/21 00:25:00;;;;;;;;;;;27.20;69.50;;;;;;5028391;28;19914;-69
2022/12/21 00:27:26;;;;;;;;;;;27.00;70.80;;;;;;5036686;28;20287;-70
2022/12/21 00:29:53;;;;;;;;;;;27.10;72.70;;;;;;5028021;28;20314;-70
2022/12/21 00:32:20;;;;;;;;;;;27.40;72.30;;;;;;5026949;28;19948;-71
2022/12/21 00:34:46;;;;;;;;;;;27.70;74.60;;;;;;5023749;28;19913;-70
2022/12/21 00:37:13;;;;;;;;;;;28.10;73.70;;;;;;5023674;28;20017;-70
2022/12/21 00:39:40;;;;;;;;;;;28.40;70.40;;;;;;5022431;28;20356;-70
2022/12/21 00:42:10;;;;;;;;;;;28.60;72.10;;;;;;5020179;28;20275;-70
2022/12/21 00:44:41;;;;;;;;;;;28.90;71.60;;;;;;5022433;28;19946;-71
2022/12/21 00:47:08;;;;;;;;;;;29.00;71.40;;;;;;5030010;28;19979;-69
2022/12/21 00:49:35;;;;;;;;;;;29.30;73.20;;;;;;5039337;28;19920;-70
2022/12/21 00:52:01;;;;;;;;;;;29.50;69.20;;;;;;5037776;28;20008;-70
2022/12/21 00:54:28;;;;;;;;;;;29.20;68.90;;;;;;5033492;28;19913;-71
2022/12/21 00:56:55;;;;;;;;;;;28.90;68.40;;;;;;5035632;28;20119;-72
2022/12/21 00:59:22;;;;;;;;;;;28.60;69.20;;;;;;5019195;28;20402;-68
2022/12/21 01:01:49;;;;;;;;;;;28.70;69.10;;;;;;5026476;28;19913;-71
2022/12/21 01:04:16;;;;;;;;;;;28.90;69.50;;;;;;5034069;28;20435;-69
2022/12/21 01:06:42;;;;;;;;;;;28.60;68.50;;;;;;5035792;28;19917;-69
2022/12/21 01:09:09;;;;;;;;;;;28.40;68.80;;;;;;5025948;28;19922;-69
2022/12/21 01:11:36;;;;;;;;;;;28.20;68.70;;;;;;5021653;28;20362;-71
2022/12/21 01:14:03;;;;;;;;;;;28.10;69.50;;;;;;5027170;28;20352;-69
2022/12/21 01:16:31;;;;;;;;;;;28.40;72.60;;;;;;5032888;28;19913;-71
2022/12/21 01:19:01;;;;;;;;;;;28.90;71.50;;;;;;5032592;28;19919;-71
2022/12/21 01:21:28;;;;;;;;;;;29.30;69.80;;;;;;5051381;28;19913;-70
2022/12/21 01:23:56;;;;;;;;;;;29.60;69.50;;;;;;5031889;28;19917;-70
2022/12/21 01:26:22;;;;;;;;;;;29.80;71.00;;;;;;5043859;28;19948;-69
2022/12/21 01:28:49;;;;;;;;;;;29.80;69.10;;;;;;5036695;28;19924;-70
2022/12/21 01:31:16;;;;;;;;;;;29.90;69.30;;;;;;5030967;28;20003;-68
2022/12/21 01:33:42;;;;;;;;;;;30.10;67.60;;;;;;5026402;28;19917;-72
2022/12/21 01:36:10;;;;;;;;;;;30.10;69.10;;;;;;5017263;28;20000;-68
2022/12/21 01:38:40;;;;;;;;;;;30.00;67.60;;;;;;5024737;28;20045;-68
2022/12/21 01:41:08;;;;;;;;;;;29.90;68.30;;;;;;5027939;28;20010;-70
2022/12/21 01:43:43;;;;;;;;;;;30.10;68.20;;;;;;5027076;28;19952;-70
2022/12/21 01:46:16;;;;;;;;;;;30.20;68.40;;;;;;5030415;28;19913;-70
2022/12/21 01:48:45;;;;;;;;;;;30.30;67.50;;;;;;5019603;28;19925;-71
2022/12/21 01:51:13;;;;;;;;;;;30.60;69.70;;;;;;5027520;28;19920;-70
2022/12/21 01:53:43;;;;;;;;;;;31.00;69.40;;;;;;5038131;28;20008;-70
2022/12/21 01:56:11;;;;;;;;;;;31.20;68.40;;;;;;5028502;28;20000;-71
2022/12/21 01:58:39;;;;;;;;;;;31.20;67.40;;;;;;5032523;28;20011;-70
2022/12/21 02:01:05;;;;;;;;;;;31.00;68.20;;;;;;5038604;28;19916;-69
2022/12/21 02:03:34;;;;;;;;;;;30.80;68.90;;;;;;5035217;28;20364;-69
2022/12/21 02:06:09;;;;;;;;;;;30.90;68.30;;;;;;5026983;28;19917;-69
2022/12/21 02:08:35;;;;;;;;;;;30.90;66.80;;;;;;5027279;28;19913;-70
2022/12/21 02:11:03;;;;;;;;;;;30.70;66.80;;;;;;5028136;28;19979;-70
2022/12/21 02:13:29;;;;;;;;;;;30.50;66.30;;;;;;5031353;28;19921;-69
2022/12/21 02:15:59;;;;;;;;;;;29.90;66.60;;;;;;5032002;28;19975;-68
2022/12/21 02:18:55;;;;;;;;;;;29.10;67.00;;;;;;5031314;28;19916;-71
2022/12/21 02:21:27;;;;;;;;;;;28.60;67.70;;;;;;5010255;28;19946;-69
2022/12/21 02:24:00;;;;;;;;;;;28.70;68.50;;;;;;5034512;28;19920;-70
2022/12/21 02:26:26;;;;;;;;;;;29.00;68.80;;;;;;5034469;28;19913;-69
2022/12/21 02:28:59;;;;;;;;;;;29.40;67.90;;;;;;5031000;28;19913;-69
2022/12/21 02:31:26;;;;;;;;;;;29.60;69.30;;;;;;5041327;28;19929;-69
2022/12/21 02:33:56;;;;;;;;;;;29.60;67.20;;;;;;5043718;28;19966;-69
2022/12/21 02:36:44;;;;;;;;;;;29.40;68.30;;;;;;5033691;28;20000;-68
2022/12/21 02:39:39;;;;;;;;;;;29.60;68.30;;;;;;5029305;28;19917;-70
2022/12/21 02:42:09;;;;;;;;;;;30.10;70.80;;;;;;5018530;28;19925;-69
2022/12/21 02:44:45;;;;;;;;;;;30.50;67.30;;;;;;5028466;28;20291;-69
2022/12/21 02:47:14;;;;;;;;;;;30.50;66.10;;;;;;5038444;28;20862;-70
2022/12/21 02:49:44;;;;;;;;;;;30.50;69.60;;;;;;5023908;28;19917;-70
2022/12/21 02:52:15;;;;;;;;;;;30.90;69.90;;;;;;5026376;28;19925;-70
2022/12/21 02:54:43;;;;;;;;;;;30.80;66.60;;;;;;5039634;28;20015;-70
2022/12/21 02:57:10;;;;;;;;;;;30.40;66.90;;;;;;5041664;28;19920;-71
2022/12/21 02:59:43;;;;;;;;;;;30.30;67.20;;;;;;5029846;28;20383;-70
2022/12/21 03:02:32;;;;;;;;;;;30.50;68.60;;;;;;5027561;28;19920;-69
2022/12/21 03:05:12;;;;;;;;;;;30.70;66.70;;;;;;5033394;28;19929;-70
2022/12/21 03:07:51;;;;;;;;;;;30.70;67.20;;;;;;5031478;28;19913;-71
2022/12/21 03:10:20;;;;;;;;;;;30.40;66.90;;;;;;5025642;28;20638;-70
2022/12/21 03:12:54;;;;;;;;;;;30.30;68.60;;;;;;5029754;28;19941;-69
2022/12/21 03:15:20;;;;;;;;;;;30.40;67.70;;;;;;5031774;28;19917;-70
2022/12/21 03:17:47;;;;;;;;;;;30.60;68.50;;;;;;5031692;28;20477;-70
2022/12/21 03:20:20;;;;;;;;;;;30.70;68.60;;;;;;5041758;28;19924;-70
2022/12/21 03:22:52;;;;;;;;;;;30.90;67.60;;;;;;5036003;28;19983;-70
2022/12/21 03:25:28;;;;;;;;;;;31.10;68.30;;;;;;5032314;28;20299;-69
2022/12/21 03:27:58;;;;;;;;;;;31.30;67.50;;;;;;5030393;28;19924;-68
2022/12/21 03:30:39;;;;;;;;;;;31.20;66.60;;;;;;5032741;28;19917;-69
2022/12/21 03:33:22;;;;;;;;;;;30.90;68.60;;;;;;5008668;28;19940;-69
2022/12/21 03:36:13;;;;;;;;;;;;;;;;;;;;;
2022/12/21 03:38:54;;;;;;;;;;;29.90;68.50;;;;;;5012267;28;19921;-69
2022/12/21 03:41:43;;;;;;;;;;;29.50;69.50;;;;;;5022886;28;19917;-66
2022/12/21 03:44:11;;;;;;;;;;;29.50;70.00;;;;;;5015150;28;19999;-68
2022/12/21 03:46:40;;;;;;;;;;;29.30;68.70;;;;;;5026961;28;19913;-69
2022/12/21 03:49:14;;;;;;;;;;;29.30;71.30;;;;;;5013005;28;19964;-68
2022/12/21 03:51:43;;;;;;;;;;;29.60;71.00;;;;;;5025606;28;19940;-69
2022/12/21 03:54:17;;;;;;;;;;;29.80;70.10;;;;;;5029081;28;19917;-68
2022/12/21 03:56:44;;;;;;;;;;;29.80;69.90;;;;;;5030014;28;20314;-69
2022/12/21 03:59:12;;;;;;;;;;;29.90;69.80;;;;;;5029231;28;19957;-67
2022/12/21 04:01:39;;;;;;;;;;;29.90;69.90;;;;;;5035428;28;20012;-67
2022/12/21 04:04:10;;;;;;;;;;;29.90;70.10;;;;;;5035724;28;19917;-67
2022/12/21 04:06:38;;;;;;;;;;;29.80;70.70;;;;;;5030959;28;19917;-68
2022/12/21 04:09:05;;;;;;;;;;;29.80;70.60;;;;;;5024564;28;19972;-71
2022/12/21 04:14:21;;;;;;;;;;;29.80;69.80;;;;;;5018928;28;19924;-69
2022/12/21 04:16:47;;;;;;;;;;;29.70;70.10;;;;;;5015853;28;19917;-67
2022/12/21 04:20:00;;;;;;;;;;;29.60;70.40;;;;;;5021739;28;19917;-67
2022/12/21 04:22:01;;;;;;;;;;;29.30;70.20;;;;;;5006534;28;19917;-68
2022/12/21 04:29:57;;;;;;;;;;;28.80;71.30;;;;;;5027498;28;19944;-68
2022/12/21 04:32:23;;;;;;;;;;;28.90;71.60;;;;;;5031306;28;19925;-70
2022/12/21 04:34:50;;;;;;;;;;;29.00;72.00;;;;;;5031902;28;20498;-68
2022/12/21 04:37:32;;;;;;;;;;;29.10;71.50;;;;;;5026324;28;19921;-69
2022/12/21 04:39:59;;;;;;;;;;;29.20;72.30;;;;;;5035322;28;19916;-69
2022/12/21 04:42:26;;;;;;;;;;;29.30;71.30;;;;;;5039340;28;19957;-68
2022/12/21 04:44:53;;;;;;;;;;;29.30;71.00;;;;;;5027808;28;20311;-69
2022/12/21 04:47:20;;;;;;;;;;;29.10;71.20;;;;;;5033182;28;20015;-69
2022/12/21 04:49:46;;;;;;;;;;;29.00;71.80;;;;;;5027007;28;20003;-69
2022/12/21 04:52:13;;;;;;;;;;;29.00;71.80;;;;;;5030161;28;19925;-69
2022/12/21 04:54:40;;;;;;;;;;;28.90;70.80;;;;;;5038016;28;20397;-69
2022/12/21 04:57:06;;;;;;;;;;;28.80;70.20;;;;;;5035088;28;20418;-68
2022/12/21 04:59:33;;;;;;;;;;;28.50;70.70;;;;;;5024027;28;20457;-68
2022/12/21 05:02:00;;;;;;;;;;;28.50;71.80;;;;;;5025718;28;20614;-69
2022/12/21 05:04:26;;;;;;;;;;;28.60;71.80;;;;;;5025660;28;20416;-69
2022/12/21 05:06:54;;;;;;;;;;;28.50;72.00;;;;;;5024955;28;20390;-69
2022/12/21 05:09:22;;;;;;;;;;;28.40;71.90;;;;;;5023097;28;19932;-70
2022/12/21 05:11:49;;;;;;;;;;;28.20;71.90;;;;;;5029022;28;20019;-67
2022/12/21 05:14:16;;;;;;;;;;;28.00;72.50;;;;;;5029657;28;19913;-67
2022/12/21 05:16:42;;;;;;;;;;;28.00;72.80;;;;;;5043995;28;19951;-69
2022/12/21 05:19:09;;;;;;;;;;;28.00;72.90;;;;;;5020349;28;20386;-68
2022/12/21 05:21:36;;;;;;;;;;;27.90;73.50;;;;;;5029250;28;20007;-69
2022/12/21 05:24:02;;;;;;;;;;;27.80;73.70;;;;;;5020983;28;20064;-69
2022/12/21 05:26:29;;;;;;;;;;;27.60;73.60;;;;;;5028567;28;19928;-67
2022/12/21 05:28:55;;;;;;;;;;;27.30;74.50;;;;;;5010091;28;19921;-68
2022/12/21 05:31:22;;;;;;;;;;;27.30;74.70;;;;;;5011619;28;20394;-68
2022/12/21 05:33:49;;;;;;;;;;;27.30;74.70;;;;;;5023432;28;19921;-70
2022/12/21 05:36:16;;;;;;;;;;;27.10;74.80;;;;;;5027774;28;19917;-67
2022/12/21 05:38:43;;;;;;;;;;;27.00;74.90;;;;;;5026457;28;20403;-68
2022/12/21 05:41:11;;;;;;;;;;;26.90;75.80;;;;;;5030477;28;19917;-69
2022/12/21 05:43:38;;;;;;;;;;;26.90;75.50;;;;;;5031225;28;20011;-68
2022/12/21 05:46:05;;;;;;;;;;;26.90;75.70;;;;;;5019145;28;19917;-69
2022/12/21 05:48:32;;;;;;;;;;;26.90;75.50;;;;;;5027839;28;19975;-68
2022/12/21 05:50:59;;;;;;;;;;;27.00;76.10;;;;;;5028337;28;20374;-71
2022/12/21 05:53:26;;;;;;;;;;;27.00;76.10;;;;;;5027561;28;19920;-69
2022/12/21 05:55:53;;;;;;;;;;;27.00;75.90;;;;;;5031309;28;19917;-71
2022/12/21 05:58:19;;;;;;;;;;;27.00;75.50;;;;;;5032420;28;20028;-68
2022/12/21 06:00:46;;;;;;;;;;;26.90;75.40;;;;;;5035025;28;19921;-71
2022/12/21 06:03:13;;;;;;;;;;;26.90;75.60;;;;;;5027872;28;19958;-69
2022/12/21 06:05:39;;;;;;;;;;;26.70;75.50;;;;;;5028579;28;19917;-69
2022/12/21 06:08:06;;;;;;;;;;;26.70;76.20;;;;;;5018180;28;19921;-69
2022/12/21 06:10:35;;;;;;;;;;;26.50;76.40;;;;;;5019255;28;19921;-68
2022/12/21 06:13:02;;;;;;;;;;;26.40;76.30;;;;;;5028821;28;19936;-67
2022/12/21 06:15:29;;;;;;;;;;;26.20;76.10;;;;;;5027955;28;19925;-68
2022/12/21 06:17:56;;;;;;;;;;;26.20;76.70;;;;;;5021118;28;19964;-68
2022/12/21 06:20:22;;;;;;;;;;;26.20;77.40;;;;;;5040220;28;19924;-69
2022/12/21 06:22:49;;;;;;;;;;;26.20;77.10;;;;;;5029322;28;19925;-67
2022/12/21 06:25:16;;;;;;;;;;;26.20;76.90;;;;;;5030755;28;19995;-66
2022/12/21 06:27:42;;;;;;;;;;;26.10;77.40;;;;;;5024485;28;19913;-68
2022/12/21 06:30:09;;;;;;;;;;;25.90;77.70;;;;;;5029589;28;20099;-68
2022/12/21 06:32:36;;;;;;;;;;;25.90;78.20;;;;;;5001668;28;20501;-70
2022/12/21 06:35:05;;;;;;;;;;;25.80;78.20;;;;;;5021571;28;20290;-68
2022/12/21 06:37:31;;;;;;;;;;;25.70;78.20;;;;;;5033074;28;19930;-68
2022/12/21 06:39:58;;;;;;;;;;;25.50;78.60;;;;;;5029771;28;19934;-72
2022/12/21 06:42:26;;;;;;;;;;;25.30;79.10;;;;;;5028394;28;20290;-69
2022/12/21 06:44:53;;;;;;;;;;;25.20;79.30;;;;;;5020990;28;19932;-68
2022/12/21 06:47:20;;;;;;;;;;;25.10;79.50;;;;;;5018748;28;19917;-70
2022/12/21 06:49:46;;;;;;;;;;;25.20;79.50;;;;;;5026748;28;20024;-67
2022/12/21 06:52:13;;;;;;;;;;;25.20;79.40;;;;;;5030141;28;19970;-68
2022/12/21 06:54:41;;;;;;;;;;;25.10;79.70;;;;;;5024530;28;20307;-69
2022/12/21 06:57:07;;;;;;;;;;;25.00;79.70;;;;;;5028258;28;19921;-69
2022/12/21 06:59:36;;;;;;;;;;;24.90;79.70;;;;;;5026169;28;19913;-69
2022/12/21 07:02:03;;;;;;;;;;;24.90;79.90;;;;;;5014740;28;20379;-68
2022/12/21 07:04:29;;;;;;;;;;;24.70;80.20;;;;;;5008944;28;20245;-69
2022/12/21 07:06:56;;;;;;;;;;;24.60;80.30;;;;;;5021975;28;20019;-68
2022/12/21 07:09:23;;;;;;;;;;;24.40;80.70;;;;;;5013802;28;19979;-68
2022/12/21 07:11:52;;;;;;;;;;;24.30;80.70;;;;;;5026166;28;19940;-70
2022/12/21 07:14:19;;;;;;;;;;;24.30;81.30;;;;;;5041700;28;19917;-70
2022/12/21 07:16:45;;;;;;;;;;;24.20;80.80;;;;;;5036974;28;19943;-69
2022/12/21 07:19:12;;;;;;;;;;;24.20;80.80;;;;;;5021739;28;20012;-69
2022/12/21 07:21:38;;;;;;;;;;;24.10;81.20;;;;;;5041024;28;20016;-69
2022/12/21 07:24:05;;;;;;;;;;;24.00;81.10;;;;;;5033637;28;20371;-71
2022/12/21 07:26:32;;;;;;;;;;;23.90;80.80;;;;;;5038252;28;19945;-70
2022/12/21 07:28:59;;;;;;;;;;;23.90;81.40;;;;;;5036904;28;19913;-70
2022/12/21 07:31:27;;;;;;;;;;;23.80;81.60;;;;;;5032655;28;19917;-70
2022/12/21 07:33:54;;;;;;;;;;;23.80;81.90;;;;;;5037540;28;19913;-70
2022/12/21 07:36:20;;;;;;;;;;;23.60;81.80;;;;;;5029064;28;19971;-70
2022/12/21 07:38:47;;;;;;;;;;;23.40;82.60;;;;;;5029963;28;19979;-69
2022/12/21 07:41:15;;;;;;;;;;;23.30;82.90;;;;;;5038095;28;20007;-69
2022/12/21 07:43:41;;;;;;;;;;;23.20;83.30;;;;;;5020445;28;19917;-70
2022/12/21 07:46:08;;;;;;;;;;;23.20;83.20;;;;;;5037266;28;19955;-70
2022/12/21 07:48:35;;;;;;;;;;;23.20;83.10;;;;;;5038927;28;20355;-70
2022/12/21 07:51:02;;;;;;;;;;;23.20;83.00;;;;;;5031472;28;20441;-70
2022/12/21 07:53:29;;;;;;;;;;;23.10;83.20;;;;;;5024262;28;19917;-69
2022/12/21 07:55:59;;;;;;;;;;;23.00;83.10;;;;;;5011140;28;20299;-70
2022/12/21 07:58:26;;;;;;;;;;;22.80;83.30;;;;;;5030436;28;19916;-70
2022/12/21 08:00:53;;;;;;;;;;;22.60;83.90;;;;;;5032717;28;20016;-70
2022/12/21 08:03:19;;;;;;;;;;;22.50;84.30;;;;;;5037225;28;20368;-69
2022/12/21 08:05:46;;;;;;;;;;;22.40;84.10;;;;;;5012691;28;19913;-69
2022/12/21 08:08:13;;;;;;;;;;;22.40;84.50;;;;;;5024462;28;19967;-70
2022/12/21 08:10:39;;;;;;;;;;;22.30;84.50;;;;;;5026824;28;20264;-70
2022/12/21 08:13:06;;;;;;;;;;;22.20;84.60;;;;;;5030542;28;19925;-70
2022/12/21 08:15:33;;;;;;;;;;;22.20;84.80;;;;;;5024556;28;20363;-70
2022/12/21 08:17:59;;;;;;;;;;;22.10;85.10;;;;;;5029259;28;19924;-69
2022/12/21 08:20:26;;;;;;;;;;;22.00;85.20;;;;;;5031189;28;20307;-69
2022/12/21 08:22:52;;;;;;;;;;;21.90;85.50;;;;;;5024645;28;19924;-69
2022/12/21 08:25:19;;;;;;;;;;;21.90;85.70;;;;;;5040666;28;20409;-70
2022/12/21 08:27:46;;;;;;;;;;;21.80;86.00;;;;;;5044684;28;20302;-70
2022/12/21 08:30:14;;;;;;;;;;;21.70;85.90;;;;;;5027954;28;19913;-70
2022/12/21 08:32:41;;;;;;;;;;;21.70;86.50;;;;;;5027634;28;19921;-69
2022/12/21 08:35:07;;;;;;;;;;;21.60;86.60;;;;;;5021347;28;19917;-69
2022/12/21 08:37:34;;;;;;;;;;;21.50;87.00;;;;;;5018816;28;19945;-69
2022/12/21 08:40:01;;;;;;;;;;;21.40;86.90;;;;;;5037139;28;19956;-70
2022/12/21 08:42:28;;;;;;;;;;;21.30;86.90;;;;;;5032560;28;19955;-70
2022/12/21 08:44:54;;;;;;;;;;;21.20;87.10;;;;;;5030069;28;19978;-70
2022/12/21 08:47:21;;;;;;;;;;;21.20;87.40;;;;;;5031947;28;20036;-69
2022/12/21 08:49:47;;;;;;;;;;;21.10;87.70;;;;;;5025474;28;19913;-69
2022/12/21 08:52:14;;;;;;;;;;;20.90;88.00;;;;;;5036519;28;19924;-69
2022/12/21 08:54:41;;;;;;;;;;;20.90;88.40;;;;;;5015054;28;19924;-69
2022/12/21 08:57:08;;;;;;;;;;;20.80;88.40;;;;;;5023752;28;19917;-71
2022/12/21 08:59:34;;;;;;;;;;;20.70;88.90;;;;;;5031977;28;19952;-67
2022/12/21 09:02:01;;;;;;;;;;;20.60;89.30;;;;;;5029779;28;19917;-70
2022/12/21 09:04:28;;;;;;;;;;;20.50;89.60;;;;;;5026270;28;19917;-70
2022/12/21 09:06:54;;;;;;;;;;;20.50;90.00;;;;;;5032427;28;19917;-71
2022/12/21 09:09:21;;;;;;;;;;;20.30;90.20;;;;;;5019449;28;19932;-70
2022/12/21 09:11:47;;;;;;;;;;;20.30;90.40;;;;;;5046084;28;19924;-70
2022/12/21 09:14:14;;;;;;;;;;;20.10;90.60;;;;;;5017250;28;19917;-69
2022/12/21 09:16:41;;;;;;;;;;;20.10;90.90;;;;;;5028481;28;19913;-69
2022/12/21 09:19:08;;;;;;;;;;;20.00;91.20;;;;;;5016555;28;20371;-70
2022/12/21 09:21:35;;;;;;;;;;;20.00;91.40;;;;;;5013166;28;19917;-70
2022/12/21 09:24:01;;;;;;;;;;;19.90;91.50;;;;;;5035249;28;20003;-70
2022/12/21 09:26:28;;;;;;;;;;;19.80;91.60;;;;;;5036983;28;20002;-69
2022/12/21 09:28:54;;;;;;;;;;;19.80;91.70;;;;;;5025381;28;19913;-70
2022/12/21 09:31:22;;;;;;;;;;;19.70;91.80;;;;;;5028552;28;20286;-71
2022/12/21 09:33:50;;;;;;;;;;;19.60;91.80;;;;;;5027810;28;20371;-69
2022/12/21 09:36:17;;;;;;;;;;;19.50;91.90;;;;;;5030146;28;19919;-69
2022/12/21 09:38:43;;;;;;;;;;;19.50;92.00;;;;;;5022594;28;19924;-69
2022/12/21 09:41:28;;;;;;;;;;;19.50;92.10;;;;;;5023927;28;19952;-70
2022/12/21 09:44:11;;;;;;;;;;;19.40;92.20;;;;;;5034159;28;19956;-69
2022/12/21 09:46:39;;;;;;;;;;;19.40;92.40;;;;;;5026927;28;19913;-70
2022/12/21 09:49:07;;;;;;;;;;;19.30;92.70;;;;;;5031347;28;19919;-70
2022/12/21 09:51:35;;;;;;;;;;;19.30;92.90;;;;;;5031329;28;19929;-70
2022/12/21 09:54:13;;;;;;;;;;;19.20;93.20;;;;;;5034963;28;19924;-69
2022/12/21 09:56:40;;;;;;;;;;;19.20;93.30;;;;;;5027532;28;19971;-70
2022/12/21 09:59:10;;;;;;;;;;;19.10;93.50;;;;;;5026673;28;20384;-70
2022/12/21 10:01:49;;;;;;;;;;;19.10;93.70;;;;;;5034195;28;20169;-70
2022/12/21 10:04:24;;;;;;;;;;;19.10;93.90;;;;;;5023828;28;19932;-71
2022/12/21 10:07:19;;;;;;;;;;;19.00;93.90;;;;;;5019363;28;20389;-69
2022/12/21 10:09:59;;;;;;;;;;;19.00;94.20;;;;;;4971208;28;19921;-69
2022/12/21 10:12:29;;;;;;;;;;;19.00;94.50;;;;;;5040780;28;19925;-71
2022/12/21 10:14:56;;;;;;;;;;;18.90;94.80;;;;;;5036154;28;19921;-69
2022/12/21 10:17:25;;;;;;;;;;;18.90;94.90;;;;;;5025027;28;19918;-69
2022/12/21 10:20:02;;;;;;;;;;;18.90;95.20;;;;;;5028079;28;20407;-69
2022/12/21 10:22:32;;;;;;;;;;;18.80;95.30;;;;;;5033621;28;19913;-69
2022/12/21 10:25:00;;;;;;;;;;;18.80;95.50;;;;;;5030611;28;19909;-69
2022/12/21 10:27:34;;;;;;;;;;;18.80;95.60;;;;;;5027146;28;20062;-69
2022/12/21 10:30:02;;;;;;;;;;;18.80;95.90;;;;;;5030290;28;20279;-69
2022/12/21 10:32:33;;;;;;;;;;;18.80;96.10;;;;;;5029785;28;19921;-69
2022/12/21 10:35:17;;;;;;;;;;;18.80;96.30;;;;;;5033958;28;19909;-69
2022/12/21 10:37:48;;;;;;;;;;;18.70;96.50;;;;;;5025580;28;19952;-70
2022/12/21 10:40:15;;;;;;;;;;;18.70;96.70;;;;;;5034091;28;19916;-70
2022/12/21 10:42:44;;;;;;;;;;;18.60;96.80;;;;;;5039026;28;20526;-70
2022/12/21 10:45:12;;;;;;;;;;;18.50;97.10;;;;;;5045076;28;19924;-71
2022/12/21 10:47:40;;;;;;;;;;;18.40;97.30;;;;;;5014928;28;20004;-71
2022/12/21 10:50:07;;;;;;;;;;;18.40;97.40;;;;;;5041698;28;20362;-71
2022/12/21 10:52:38;;;;;;;;;;;18.30;97.70;;;;;;5039387;28;19955;-70
2022/12/21 10:55:25;;;;;;;;;;;18.30;97.80;;;;;;5047106;28;19912;-70
2022/12/21 10:58:02;;;;;;;;;;;18.20;98.20;;;;;;5025532;28;20249;-69
2022/12/21 11:00:30;;;;;;;;;;;18.10;98.20;;;;;;5042603;28;19917;-69
2022/12/21 11:02:57;;;;;;;;;;;18.20;98.50;;;;;;5027860;28;20354;-69
2022/12/21 11:05:29;;;;;;;;;;;18.10;98.60;;;;;;5027867;28;19964;-68
2022/12/21 11:08:15;;;;;;;;;;;18.10;98.70;;;;;;5029102;28;20061;-69
2022/12/21 11:10:43;;;;;;;;;;;18.10;98.80;;;;;;5031442;28;19913;-69
2022/12/21 11:13:11;;;;;;;;;;;18.00;99.00;;;;;;5028538;28;19925;-69
2022/12/21 11:15:38;;;;;;;;;;;18.10;99.10;;;;;;5032666;28;20359;-69
2022/12/21 11:18:17;;;;;;;;;;;18.00;99.20;;;;;;5032451;28;20341;-70
2022/12/21 11:20:48;;;;;;;;;;;18.00;99.20;;;;;;5038388;28;19929;-69
2022/12/21 11:23:15;;;;;;;;;;;18.00;99.20;;;;;;5024560;28;19921;-69
2022/12/21 11:25:42;;;;;;;;;;;18.00;99.20;;;;;;5042361;28;20308;-70
2022/12/21 11:28:08;;;;;;;;;;;18.00;99.30;;;;;;5036548;28;19917;-69
2022/12/21 11:30:35;;;;;;;;;;;17.90;99.40;;;;;;5028884;28;19917;-69
2022/12/21 11:33:02;;;;;;;;;;;17.90;99.50;;;;;;5039016;28;20390;-69
2022/12/21 11:35:34;;;;;;;;;;;17.90;99.60;;;;;;5025532;28;19912;-69
2022/12/21 11:38:11;;;;;;;;;;;17.90;99.50;;;;;;5035560;28;19963;-69
2022/12/21 11:40:38;;;;;;;;;;;17.90;99.70;;;;;;5040416;28;19958;-70
2022/12/21 11:43:06;;;;;;;;;;;17.90;99.60;;;;;;5025964;28;20003;-69
2022/12/21 11:45:50;;;;;;;;;;;17.90;99.70;;;;;;5035740;28;19913;-69
2022/12/21 11:48:17;;;;;;;;;;;17.90;99.80;;;;;;5022718;28;20003;-70
2022/12/21 11:50:55;;;;;;;;;;;17.80;99.70;;;;;;5028691;28;19921;-69
2022/12/21 11:53:50;;;;;;;;;;;17.80;99.70;;;;;;5013435;28;19979;-68
2022/12/21 11:56:19;;;;;;;;;;;17.80;99.80;;;;;;5013573;28;19921;-70
2022/12/21 11:58:55;;;;;;;;;;;17.70;99.90;;;;;;5034109;28;19917;-70
2022/12/21 12:01:31;;;;;;;;;;;17.80;99.80;;;;;;5029009;28;19917;-70
2022/12/21 12:04:04;;;;;;;;;;;17.70;99.80;;;;;;5034530;28;19917;-70
2022/12/21 12:06:30;;;;;;;;;;;17.70;99.90;;;;;;5030414;28;20080;-69
2022/12/21 12:09:15;;;;;;;;;;;17.60;99.90;;;;;;5029067;28;19924;-69
2022/12/21 12:11:47;;;;;;;;;;;17.70;99.90;;;;;;5025157;28;20003;-70
2022/12/21 12:14:13;;;;;;;;;;;17.70;99.90;;;;;;5023259;28;19923;-70
2022/12/21 12:17:06;;;;;;;;;;;17.70;99.90;;;;;;5024254;28;20283;-70
2022/12/21 12:19:45;;;;;;;;;;;17.60;99.90;;;;;;5005843;28;19932;-69
2022/12/21 12:22:31;;;;;;;;;;;17.60;99.90;;;;;;5027669;28;19913;-68
2022/12/21 12:25:27;;;;;;;;;;;17.60;99.90;;;;;;5027019;28;20211;-70
2022/12/21 12:27:54;;;;;;;;;;;17.60;99.90;;;;;;4997024;28;19975;-69
2022/12/21 12:30:22;;;;;;;;;;;17.60;99.90;;;;;;5030177;28;20003;-69
2022/12/21 12:32:58;;;;;;;;;;;17.60;99.90;;;;;;5028994;28;19926;-69
2022/12/21 12:35:35;;;;;;;;;;;17.60;99.90;;;;;;5018542;28;19921;-69
2022/12/21 12:38:20;;;;;;;;;;;17.60;99.90;;;;;;5020764;28;20124;-69
2022/12/21 12:40:47;;;;;;;;;;;17.60;99.90;;;;;;5023132;28;19957;-70
2022/12/21 12:43:13;;;;;;;;;;;17.60;99.90;;;;;;5029666;28;19956;-70
2022/12/21 12:45:43;;;;;;;;;;;17.60;99.90;;;;;;5023895;28;19920;-71
2022/12/21 12:48:24;;;;;;;;;;;17.60;99.90;;;;;;5026863;28;20326;-71
2022/12/21 12:51:06;;;;;;;;;;;17.60;99.90;;;;;;5028484;28;19917;-71
2022/12/21 12:53:42;;;;;;;;;;;17.60;99.90;;;;;;5025523;28;20335;-70
2022/12/21 12:56:22;;;;;;;;;;;17.50;99.90;;;;;;5024216;28;19975;-71
2022/12/21 12:59:07;;;;;;;;;;;17.50;99.90;;;;;;5018414;28;19917;-71
2022/12/21 13:01:39;;;;;;;;;;;17.50;99.90;;;;;;5019436;28;19914;-70
2022/12/21 13:04:24;;;;;;;;;;;17.60;99.90;;;;;;5019022;28;19924;-70
2022/12/21 13:06:58;;;;;;;;;;;17.60;99.90;;;;;;5016902;28;19917;-70
2022/12/21 13:09:37;;;;;;;;;;;17.50;99.90;;;;;;5018369;28;19925;-70
2022/12/21 13:12:13;;;;;;;;;;;17.50;99.90;;;;;;5023458;28;20326;-71
2022/12/21 13:14:43;;;;;;;;;;;17.50;99.90;;;;;;5025987;28;19917;-68
2022/12/21 13:17:12;;;;;;;;;;;17.50;99.90;;;;;;5025985;28;19921;-69
2022/12/21 13:19:40;;;;;;;;;;;17.50;99.90;;;;;;5012885;28;20012;-71
2022/12/21 13:22:08;;;;;;;;;;;17.50;99.90;;;;;;5027859;28;20282;-69
2022/12/21 13:25:01;;;;;;;;;;;17.50;99.90;;;;;;5025290;28;19979;-69
2022/12/21 13:27:37;;;;;;;;;;;17.40;99.90;;;;;;5018825;28;19917;-70
2022/12/21 13:30:17;;;;;;;;;;;17.40;99.90;;;;;;5013266;28;20021;-69
2022/12/21 13:32:52;;;;;;;;;;;17.40;99.90;;;;;;5016373;28;20000;-70
2022/12/21 13:35:26;;;;;;;;;;;17.40;99.90;;;;;;5013138;28;20283;-71
2022/12/21 13:38:00;;;;;;;;;;;17.40;99.90;;;;;;5011212;28;19967;-69
2022/12/21 13:40:33;;;;;;;;;;;17.30;99.90;;;;;;5021117;28;19996;-72
2022/12/21 13:43:12;;;;;;;;;;;17.20;99.90;;;;;;5012145;28;21647;-70
2022/12/21 13:45:45;;;;;;;;;;;17.20;99.90;;;;;;5022905;28;19959;-69
2022/12/21 13:48:14;;;;;;;;;;;17.20;99.90;;;;;;5027752;28;19909;-70
2022/12/21 13:50:46;;;;;;;;;;;17.10;99.90;;;;;;5027862;28;19917;-70
2022/12/21 13:53:18;;;;;;;;;;;17.10;99.90;;;;;;5023203;28;20023;-71
2022/12/21 13:55:48;;;;;;;;;;;17.00;99.90;;;;;;4992831;28;20426;-70
2022/12/21 13:58:25;;;;;;;;;;;17.00;99.90;;;;;;5024808;28;20356;-70
2022/12/21 14:00:59;;;;;;;;;;;16.90;99.90;;;;;;5014374;28;20467;-70
2022/12/21 14:03:31;;;;;;;;;;;16.80;99.90;;;;;;5026956;28;19921;-70
2022/12/21 14:05:58;;;;;;;;;;;16.80;99.90;;;;;;5028775;28;19936;-69
2022/12/21 14:08:27;;;;;;;;;;;16.70;99.90;;;;;;5018469;28;19914;-70
2022/12/21 14:10:57;;;;;;;;;;;16.70;99.90;;;;;;5025550;28;19920;-69
2022/12/21 14:13:42;;;;;;;;;;;16.60;99.90;;;;;;5030109;28;19960;-70
2022/12/21 14:16:20;;;;;;;;;;;16.60;99.90;;;;;;5034678;28;19913;-68
2022/12/21 14:18:52;;;;;;;;;;;16.50;99.90;;;;;;5019122;28;19917;-69
2022/12/21 14:21:26;;;;;;;;;;;16.50;99.90;;;;;;5033497;28;20368;-69
2022/12/21 14:24:03;;;;;;;;;;;16.40;99.90;;;;;;5016652;28;20016;-70
2022/12/21 14:26:42;;;;;;;;;;;16.30;99.90;;;;;;5034624;28;19920;-68
2022/12/21 14:29:12;;;;;;;;;;;16.30;99.90;;;;;;5031915;28;19998;-69
2022/12/21 14:31:58;;;;;;;;;;;16.20;99.90;;;;;;5034305;28;19956;-69
2022/12/21 14:34:27;;;;;;;;;;;16.20;99.90;;;;;;5021915;28;20331;-69
2022/12/21 14:37:16;;;;;;;;;;;16.10;99.90;;;;;;5030193;28;19925;-69
2022/12/21 14:39:43;;;;;;;;;;;16.00;99.90;;;;;;5028428;28;19914;-69
2022/12/21 14:42:28;;;;;;;;;;;15.90;99.90;;;;;;5030209;28;19920;-68
2022/12/21 14:45:12;;;;;;;;;;;15.90;99.90;;;;;;5031419;28;19971;-69